Time;durP1;ratioP1;P1;durP2;ratioP2;P2;SDS_P1;SDS_P2;PMS_P1;PMS_P2;Temp;Humidity;BMP_temperature;BMP_pressure;BME280_temperature;BME280_humidity;BME280_pressure;Samples;Min_cycle;Max_cycle;Signal;HPM_P1;HPM_P2
2023/05/28 00:00:15;;;;;;;15.67;9.10;;;;;;;10.08;70.89;101564.66;5067360;28;20207;-71
2023/05/28 00:02:47;;;;;;;14.60;8.83;;;;;;;10.03;71.54;101564.72;5050394;28;20292;-72
2023/05/28 00:05:14;;;;;;;10.17;7.17;;;;;;;9.98;71.78;101568.28;5067984;28;20195;-71
2023/05/28 00:07:41;;;;;;;13.00;8.20;;;;;;;9.93;71.20;101567.59;5045991;28;20556;-71
2023/05/28 00:10:10;;;;;;;14.57;7.20;;;;;;;9.87;71.71;101558.22;5031311;28;20203;-71
2023/05/28 00:12:38;;;;;;;11.70;6.40;;;;;;;9.82;72.20;101563.59;5049373;28;20227;-72
2023/05/28 00:15:05;;;;;;;11.00;7.70;;;;;;;9.77;72.64;101558.44;5047214;28;20200;-72
2023/05/28 00:17:36;;;;;;;11.67;7.73;;;;;;;9.70;72.17;101558.06;5058373;28;20222;-72
2023/05/28 00:20:04;;;;;;;12.67;7.77;;;;;;;9.64;73.39;101560.00;5068555;28;20242;-71
2023/05/28 00:22:31;;;;;;;15.23;7.23;;;;;;;9.59;72.89;101551.44;5069995;28;20207;-71
2023/05/28 00:24:58;;;;;;;13.60;7.80;;;;;;;9.53;73.38;101550.75;5044637;28;20214;-71
2023/05/28 00:27:26;;;;;;;11.20;6.47;;;;;;;9.48;73.20;101556.13;5081769;28;20191;-71
2023/05/28 00:29:53;;;;;;;12.97;6.80;;;;;;;9.42;73.18;101554.66;5080700;28;20196;-71
2023/05/28 00:32:20;;;;;;;12.50;6.33;;;;;;;9.36;73.08;101544.50;5051344;28;20223;-70
2023/05/28 00:34:47;;;;;;;10.57;6.50;;;;;;;9.32;73.61;101543.56;5051963;28;20644;-71
2023/05/28 00:37:15;;;;;;;12.80;7.30;;;;;;;9.28;74.14;101550.47;5065676;28;20222;-71
2023/05/28 00:39:42;;;;;;;10.63;6.77;;;;;;;9.24;74.27;101542.38;5066025;28;20214;-71
2023/05/28 00:42:12;;;;;;;10.67;6.57;;;;;;;9.18;74.58;101538.28;5059159;28;20215;-72
2023/05/28 00:44:41;;;;;;;12.20;6.53;;;;;;;9.13;74.75;101540.22;5051700;28;20261;-71
2023/05/28 00:47:08;;;;;;;11.63;6.00;;;;;;;9.09;74.96;101534.75;5049106;28;20184;-71
2023/05/28 00:49:35;;;;;;;12.23;6.30;;;;;;;9.04;74.48;101528.78;5064685;28;20195;-71
2023/05/28 00:52:03;;;;;;;10.03;6.37;;;;;;;9.00;75.65;101525.97;5050180;28;20258;-71
2023/05/28 00:54:31;;;;;;;8.73;5.80;;;;;;;8.95;75.13;101535.81;5068653;28;20210;-71
2023/05/28 00:56:59;;;;;;;10.17;6.60;;;;;;;8.90;75.26;101530.66;5052987;28;20434;-72
2023/05/28 00:59:26;;;;;;;12.03;6.83;;;;;;;8.86;75.43;101530.44;5047134;28;20200;-71
2023/05/28 01:01:55;;;;;;;10.10;6.87;;;;;;;8.82;76.08;101534.72;5047688;28;20220;-72
2023/05/28 01:04:24;;;;;;;12.63;7.47;;;;;;;8.79;76.07;101534.50;5051792;28;20207;-71
2023/05/28 01:06:51;;;;;;;10.87;6.73;;;;;;;8.75;76.12;101530.91;5069983;28;20195;-71
2023/05/28 01:09:18;;;;;;;11.80;7.37;;;;;;;8.71;76.34;101533.34;5052360;28;20218;-71
2023/05/28 01:11:51;;;;;;;11.00;5.97;;;;;;;8.67;76.87;101527.09;5052197;28;20247;-71
2023/05/28 01:14:18;;;;;;;11.63;6.83;;;;;;;8.63;76.42;101530.56;5050718;28;20195;-71
2023/05/28 01:16:46;;;;;;;12.37;6.80;;;;;;;8.60;77.10;101529.28;5051119;28;20203;-71
2023/05/28 01:19:18;;;;;;;9.87;6.70;;;;;;;8.55;76.79;101526.75;5064753;28;20188;-71
2023/05/28 01:21:47;;;;;;;11.57;6.37;;;;;;;8.53;77.02;101531.53;5030716;28;20283;-71
2023/05/28 01:24:17;;;;;;;10.90;6.63;;;;;;;8.48;77.74;101530.81;5032992;28;20223;-71
2023/05/28 01:26:44;;;;;;;13.63;6.83;;;;;;;8.45;77.14;101532.19;5051058;28;20199;-72
2023/05/28 01:29:16;;;;;;;10.13;7.00;;;;;;;8.41;78.20;101531.22;5049757;28;20191;-71
2023/05/28 01:31:44;;;;;;;9.20;6.20;;;;;;;8.38;77.93;101528.38;5068141;28;20274;-71
2023/05/28 01:34:12;;;;;;;13.83;7.60;;;;;;;8.35;78.56;101527.09;5068841;28;20717;-71
2023/05/28 01:36:45;;;;;;;12.60;6.87;;;;;;;8.31;78.39;101527.94;5068885;28;20222;-71
2023/05/28 01:39:15;;;;;;;9.30;5.93;;;;;;;8.27;78.88;101527.75;5051379;28;20214;-71
2023/05/28 01:41:45;;;;;;;8.83;5.80;;;;;;;8.23;78.14;101525.97;5050953;28;20243;-71
2023/05/28 01:44:13;;;;;;;11.57;5.70;;;;;;;8.20;78.58;101518.66;5050485;28;20203;-71
2023/05/28 01:46:40;;;;;;;12.00;6.03;;;;;;;8.15;78.95;101521.31;5067541;28;20338;-71
2023/05/28 01:49:07;;;;;;;9.30;6.33;;;;;;;8.13;79.22;101520.84;5066415;28;20258;-72
2023/05/28 01:51:34;;;;;;;9.83;6.20;;;;;;;8.10;79.04;101518.75;5045713;28;20226;-71
2023/05/28 01:54:02;;;;;;;9.60;5.97;;;;;;;8.07;79.48;101517.47;5069352;28;20214;-71
2023/05/28 01:56:28;;;;;;;10.57;6.47;;;;;;;8.04;79.11;101520.69;5033642;28;20295;-71
2023/05/28 01:58:56;;;;;;;9.97;5.83;;;;;;;8.00;79.15;101517.06;5045304;28;20207;-71
2023/05/28 02:01:28;;;;;;;11.53;6.20;;;;;;;7.95;79.24;101511.09;5051400;28;20215;-71
2023/05/28 02:03:57;;;;;;;10.77;6.33;;;;;;;7.93;79.15;101518.50;5049229;28;20290;-71
2023/05/28 02:06:25;;;;;;;11.90;7.20;;;;;;;7.86;79.17;101510.94;5050816;28;20258;-71
2023/05/28 02:08:52;;;;;;;13.40;6.53;;;;;;;7.82;79.25;101517.06;5068612;28;20191;-71
2023/05/28 02:11:19;;;;;;;12.73;6.33;;;;;;;7.77;79.93;101514.50;5033741;28;20232;-71
2023/05/28 02:13:46;;;;;;;13.13;6.50;;;;;;;7.73;79.22;101513.50;5050241;28;20247;-71
2023/05/28 02:16:17;;;;;;;14.57;6.23;;;;;;;7.72;80.16;101511.94;5054499;28;20199;-71
2023/05/28 02:18:44;;;;;;;11.53;5.80;;;;;;;7.64;79.98;101509.94;5049820;28;20191;-71
2023/05/28 02:21:11;;;;;;;13.50;6.30;;;;;;;7.59;78.96;101507.38;5050220;28;20239;-71
2023/05/28 02:23:38;;;;;;;8.43;6.30;;;;;;;7.54;79.47;101512.69;5068470;28;20197;-71
2023/05/28 02:26:05;;;;;;;11.80;6.57;;;;;;;7.52;80.42;101512.22;5049341;28;20219;-71
2023/05/28 02:28:33;;;;;;;9.27;5.87;;;;;;;7.50;80.32;101509.84;5049699;28;20226;-71
2023/05/28 02:31:00;;;;;;;13.10;6.00;;;;;;;7.46;80.68;101508.09;5068478;28;20299;-71
2023/05/28 02:33:28;;;;;;;10.40;6.07;;;;;;;7.45;81.56;101502.03;5067169;28;20219;-71
2023/05/28 02:35:56;;;;;;;15.67;6.07;;;;;;;7.42;81.30;101513.13;5067032;28;20218;-71
2023/05/28 02:38:23;;;;;;;11.57;6.37;;;;;;;7.40;80.96;101502.09;5055930;28;20205;-71
2023/05/28 02:40:51;;;;;;;12.50;6.40;;;;;;;7.37;81.79;101499.25;5069134;28;20198;-71
2023/05/28 02:43:18;;;;;;;9.20;6.33;;;;;;;7.35;81.54;101504.03;5069981;28;20216;-71
2023/05/28 02:45:45;;;;;;;11.30;6.17;;;;;;;7.31;81.57;101508.25;5069946;28;20198;-71
2023/05/28 02:48:12;;;;;;;12.30;6.27;;;;;;;7.27;81.71;101504.63;5065452;28;20298;-71
2023/05/28 02:50:40;;;;;;;12.67;6.43;;;;;;;7.23;81.79;101499.16;5048751;28;20230;-71
2023/05/28 02:53:32;;;;;;;16.20;6.57;;;;;;;7.22;82.07;101505.47;5067001;28;20214;-71
2023/05/28 02:55:59;;;;;;;10.53;6.03;;;;;;;7.18;81.99;101501.06;5048312;28;20196;-70
2023/05/28 02:58:28;;;;;;;10.37;6.37;;;;;;;7.16;81.96;101519.75;5070665;28;20657;-71
2023/05/28 03:01:05;;;;;;;12.00;6.70;;;;;;;7.12;81.87;101515.31;5049245;28;20203;-71
2023/05/28 03:03:32;;;;;;;11.70;5.50;;;;;;;7.09;81.62;101506.13;5049534;28;20258;-71
2023/05/28 03:06:03;;;;;;;8.77;6.23;;;;;;;7.08;82.77;101509.03;5030566;28;20200;-71
2023/05/28 03:08:38;;;;;;;11.40;5.97;;;;;;;7.05;82.46;101515.63;5045074;28;20215;-71
2023/05/28 03:11:05;;;;;;;13.07;7.33;;;;;;;7.07;82.13;101513.53;5049071;28;20222;-71
2023/05/28 03:13:32;;;;;;;11.63;6.23;;;;;;;7.02;82.58;101513.56;5065592;28;20222;-71
2023/05/28 03:15:59;;;;;;;10.63;5.87;;;;;;;7.03;82.58;101509.09;5048587;28;20662;-72
2023/05/28 03:18:30;;;;;;;10.10;5.70;;;;;;;7.03;82.39;101504.63;5032377;28;20211;-71
2023/05/28 03:20:58;;;;;;;9.37;5.80;;;;;;;7.05;83.27;101509.63;5042194;28;20219;-71
2023/05/28 03:23:26;;;;;;;10.33;5.90;;;;;;;7.01;81.89;101508.59;5053472;28;20195;-72
2023/05/28 03:26:13;;;;;;;10.47;5.73;;;;;;;7.04;82.47;101503.56;5070902;28;20238;-72
2023/05/28 03:28:41;;;;;;;12.97;6.23;;;;;;;7.07;82.98;101510.91;5052203;28;20198;-72
2023/05/28 03:31:29;;;;;;;13.10;6.23;;;;;;;7.07;83.18;101504.84;5068243;28;20257;-72
2023/05/28 03:34:01;;;;;;;8.13;5.83;;;;;;;7.14;84.09;101503.47;5072415;28;20225;-72
2023/05/28 03:36:29;;;;;;;9.13;5.60;;;;;;;7.15;83.28;101502.38;5062924;28;20203;-72
2023/05/28 03:38:57;;;;;;;8.43;5.57;;;;;;;7.19;83.59;101498.16;5051422;28;20200;-72
2023/05/28 03:41:26;;;;;;;9.63;5.67;;;;;;;7.22;82.97;101497.59;5050448;28;20219;-72
2023/05/28 03:43:53;;;;;;;10.23;6.37;;;;;;;7.30;83.04;101502.22;5065255;28;20666;-72
2023/05/28 03:46:20;;;;;;;9.63;5.30;;;;;;;7.30;83.00;101504.09;5056510;28;20235;-72
2023/05/28 03:48:46;;;;;;;9.43;5.70;;;;;;;7.27;81.31;101509.88;5048002;28;20262;-72
2023/05/28 03:51:13;;;;;;;12.57;6.27;;;;;;;7.25;80.14;101512.78;5047199;28;20222;-72
2023/05/28 03:53:40;;;;;;;9.37;5.43;;;;;;;7.28;80.93;101506.97;5051979;28;20262;-72
2023/05/28 03:56:09;;;;;;;11.00;5.70;;;;;;;7.29;79.90;101516.41;5047184;28;20187;-72
2023/05/28 03:58:36;;;;;;;12.23;5.73;;;;;;;7.36;80.70;101511.59;5047839;28;20226;-72
2023/05/28 04:01:02;;;;;;;12.53;5.67;;;;;;;7.47;82.42;101512.28;5065484;28;20219;-72
2023/05/28 04:03:29;;;;;;;9.43;6.17;;;;;;;7.52;81.51;101514.84;5059149;28;20672;-72
2023/05/28 04:05:55;;;;;;;9.87;6.53;;;;;;;7.64;81.87;101515.19;5048536;28;20241;-72
2023/05/28 04:08:22;;;;;;;12.77;5.87;;;;;;;7.73;82.13;101514.31;5046593;28;20621;-72
2023/05/28 04:10:52;;;;;;;11.20;5.97;;;;;;;7.79;82.03;101523.69;5051643;28;20287;-72
2023/05/28 04:13:20;;;;;;;13.53;5.20;;;;;;;7.83;81.26;101521.25;5025679;28;20303;-72
2023/05/28 04:15:47;;;;;;;10.33;5.67;;;;;;;7.93;81.37;101514.00;5042799;28;20660;-72
2023/05/28 04:18:13;;;;;;;12.90;6.47;;;;;;;7.99;80.66;101514.72;5042242;28;20196;-72
2023/05/28 04:20:41;;;;;;;13.03;5.97;;;;;;;8.10;81.18;101518.75;5044645;28;21077;-71
2023/05/28 04:23:08;;;;;;;13.00;6.10;;;;;;;8.15;79.73;101523.94;5045736;28;20557;-72
2023/05/28 04:25:36;;;;;;;10.53;6.07;;;;;;;8.26;79.52;101515.66;5044966;28;20260;-72
2023/05/28 04:28:02;;;;;;;8.73;5.83;;;;;;;8.39;79.76;101509.63;5058311;28;20207;-72
2023/05/28 04:30:30;;;;;;;10.27;6.00;;;;;;;8.51;79.70;101496.81;5049728;28;20257;-72
2023/05/28 04:32:59;;;;;;;8.17;5.00;;;;;;;8.65;80.00;101507.38;5060501;28;20294;-71
2023/05/28 04:35:26;;;;;;;9.60;6.00;;;;;;;8.74;78.94;101503.78;5060650;28;20253;-72
2023/05/28 04:37:53;;;;;;;11.80;6.07;;;;;;;8.84;78.24;101508.88;5053413;28;20218;-72
2023/05/28 04:40:21;;;;;;;9.33;5.80;;;;;;;8.94;77.92;101506.06;5042875;28;20187;-72
2023/05/28 04:42:48;;;;;;;10.23;6.07;;;;;;;9.06;77.50;101503.72;5041705;28;20725;-72
2023/05/28 04:45:16;;;;;;;8.60;5.43;;;;;;;9.20;77.67;101501.06;5027994;28;20200;-72
2023/05/28 04:47:46;;;;;;;9.40;5.13;;;;;;;9.32;76.88;101502.16;5026022;28;20654;-72
2023/05/28 04:50:13;;;;;;;10.70;5.77;;;;;;;9.45;77.15;101501.38;5057608;28;20227;-72
2023/05/28 04:52:39;;;;;;;8.57;5.53;;;;;;;9.59;76.91;101504.78;5049944;28;20222;-72
2023/05/28 04:55:07;;;;;;;8.97;5.83;;;;;;;9.72;76.28;101503.16;5041485;28;20195;-72
2023/05/28 04:57:34;;;;;;;9.50;5.40;;;;;;;9.85;75.30;101502.34;5060612;28;20215;-72
2023/05/28 05:00:02;;;;;;;9.10;5.43;;;;;;;9.98;75.22;101506.78;5042403;28;20200;-72
2023/05/28 05:02:28;;;;;;;8.20;4.87;;;;;;;10.14;76.10;101503.53;5040511;28;20219;-72
2023/05/28 05:04:57;;;;;;;7.83;5.07;;;;;;;10.27;75.64;101494.00;5052362;28;20757;-72
2023/05/28 05:07:23;;;;;;;8.00;4.93;;;;;;;10.41;74.42;101494.72;5028451;28;20191;-72
2023/05/28 05:09:51;;;;;;;6.47;4.80;;;;;;;10.53;72.40;101494.94;5037432;28;20664;-72
2023/05/28 05:12:17;;;;;;;9.23;5.20;;;;;;;10.66;71.05;101491.47;5027675;28;20232;-72
2023/05/28 05:14:44;;;;;;;10.77;5.00;;;;;;;10.78;69.97;101495.09;5054264;28;20210;-72
2023/05/28 05:17:12;;;;;;;7.80;4.70;;;;;;;10.93;69.36;101496.53;5054771;28;20220;-72
2023/05/28 05:19:38;;;;;;;9.97;5.03;;;;;;;11.08;68.03;101496.13;5037947;28;20196;-72
2023/05/28 05:22:09;;;;;;;7.53;4.10;;;;;;;11.21;67.14;101500.50;5051649;28;20210;-72
2023/05/28 05:24:38;;;;;;;8.47;4.57;;;;;;;11.34;67.51;101500.41;5037762;28;20233;-72
2023/05/28 05:27:06;;;;;;;8.67;4.43;;;;;;;11.47;66.15;101501.34;5041241;28;20213;-72
2023/05/28 05:29:32;;;;;;;8.17;4.60;;;;;;;11.58;66.40;101500.75;5035144;28;20203;-72
2023/05/28 05:31:59;;;;;;;6.97;4.60;;;;;;;11.70;64.97;101503.59;5035438;28;20318;-72
2023/05/28 05:34:25;;;;;;;7.53;4.10;;;;;;;11.83;64.31;101501.91;5037639;28;20620;-72
2023/05/28 05:37:35;;;;;;;9.80;4.17;;;;;;;11.97;63.47;101500.66;5053657;28;20211;-72
2023/05/28 05:40:23;;;;;;;7.37;4.50;;;;;;;12.12;63.69;101510.75;5047683;28;20288;-72
2023/05/28 05:43:09;;;;;;;8.50;3.90;;;;;;;12.25;62.48;101509.03;5042012;28;20242;-72
2023/05/28 05:45:36;;;;;;;6.53;3.40;;;;;;;12.39;62.09;101507.00;5039283;28;20203;-72
2023/05/28 05:48:02;;;;;;;6.20;3.73;;;;;;;12.50;62.63;101500.28;5019215;28;20199;-72
2023/05/28 05:50:30;;;;;;;8.03;3.70;;;;;;;12.63;61.75;101507.28;5052375;28;20198;-72
2023/05/28 05:52:59;;;;;;;9.57;3.90;;;;;;;12.75;62.04;101510.81;5031417;28;20215;-72
2023/05/28 05:55:25;;;;;;;7.40;3.67;;;;;;;12.86;61.09;101508.59;5036738;28;20202;-72
2023/05/28 05:57:52;;;;;;;5.47;3.73;;;;;;;12.99;61.20;101510.28;5039752;28;20202;-72
2023/05/28 06:00:18;;;;;;;7.33;3.70;;;;;;;13.08;60.46;101495.88;5040594;28;20673;-73
2023/05/28 06:02:49;;;;;;;6.60;3.87;;;;;;;13.21;58.47;101502.84;5051631;28;20278;-72
2023/05/28 06:05:35;;;;;;;6.50;3.87;;;;;;;13.33;60.00;101502.16;5054335;28;20203;-72
2023/05/28 06:08:26;;;;;;;7.87;3.80;;;;;;;13.47;56.90;101494.75;5015340;28;20664;-72
2023/05/28 06:11:00;;;;;;;8.73;4.10;;;;;;;13.55;56.39;101496.56;5030452;28;20224;-72
2023/05/28 06:13:27;;;;;;;6.13;3.80;;;;;;;13.65;58.56;101496.94;5039244;28;20220;-73
2023/05/28 06:15:56;;;;;;;5.57;3.83;;;;;;;13.74;57.01;101502.97;5028768;28;20209;-71
2023/05/28 06:18:24;;;;;;;5.33;3.60;;;;;;;13.83;56.74;101495.75;5034398;28;20662;-72
2023/05/28 06:20:52;;;;;;;8.40;3.97;;;;;;;13.91;57.37;101505.50;5031730;28;20207;-72
2023/05/28 06:23:21;;;;;;;8.73;3.87;;;;;;;14.01;56.13;101494.47;5041239;28;20292;-72
2023/05/28 06:25:49;;;;;;;13.47;5.20;;;;;;;14.11;54.55;101495.94;5036114;28;20204;-72
2023/05/28 06:28:18;;;;;;;5.67;3.70;;;;;;;14.17;56.15;101495.44;5035241;28;20582;-72
2023/05/28 06:30:44;;;;;;;8.60;3.43;;;;;;;14.29;54.83;101497.38;5033582;28;20632;-71
2023/05/28 06:33:11;;;;;;;7.83;3.20;;;;;;;14.39;55.44;101494.31;5055263;28;20218;-72
2023/05/28 06:35:37;;;;;;;7.50;3.50;;;;;;;14.49;55.54;101493.91;5039499;28;20210;-72
2023/05/28 06:38:06;;;;;;;8.60;3.70;;;;;;;14.61;53.43;101492.03;5044122;28;20230;-72
2023/05/28 06:40:34;;;;;;;6.47;4.03;;;;;;;14.74;54.37;101501.56;5031472;28;20192;-72
2023/05/28 06:43:02;;;;;;;7.23;3.70;;;;;;;14.85;54.62;101500.03;5050115;28;20211;-72
2023/05/28 06:45:44;;;;;;;6.17;3.87;;;;;;;14.96;53.57;101500.38;5050242;28;20195;-72
2023/05/28 06:48:12;;;;;;;6.47;3.80;;;;;;;15.04;54.95;101488.84;5034448;28;20441;-72
2023/05/28 06:50:41;;;;;;;5.37;3.80;;;;;;;15.15;54.10;101501.38;5053307;28;20592;-72
2023/05/28 06:53:10;;;;;;;7.20;3.70;;;;;;;15.26;52.14;101493.75;5032392;28;20274;-72
2023/05/28 06:55:37;;;;;;;6.57;3.37;;;;;;;15.36;51.65;101491.41;5035597;28;20203;-72
2023/05/28 06:58:27;;;;;;;8.57;3.93;;;;;;;15.49;53.25;101492.16;5048521;28;20704;-72
2023/05/28 07:01:08;;;;;;;9.93;3.77;;;;;;;15.58;52.91;101490.91;5032052;28;20226;-72
2023/05/28 07:03:53;;;;;;;5.27;3.47;;;;;;;15.70;51.68;101493.56;5044661;28;20240;-72
2023/05/28 07:06:39;;;;;;;6.00;3.87;;;;;;;15.82;51.52;101490.09;5038630;28;20202;-72
2023/05/28 07:09:08;;;;;;;5.53;3.83;;;;;;;15.94;51.61;101493.47;5027577;28;20621;-72
2023/05/28 07:11:34;;;;;;;5.87;3.60;;;;;;;16.05;50.38;101493.78;5047561;28;20652;-72
2023/05/28 07:14:02;;;;;;;6.03;3.80;;;;;;;16.12;49.04;101492.09;5028196;28;20219;-72
2023/05/28 07:16:30;;;;;;;6.33;3.97;;;;;;;16.25;51.13;101496.22;5030793;28;20655;-72
2023/05/28 07:18:57;;;;;;;8.87;3.60;;;;;;;16.33;50.06;101495.31;5036330;28;20198;-72
2023/05/28 07:21:25;;;;;;;6.30;3.27;;;;;;;16.43;51.26;101496.72;5031280;28;20687;-72
2023/05/28 07:23:52;;;;;;;6.90;3.97;;;;;;;16.55;51.36;101499.34;5029187;28;20203;-72
2023/05/28 07:26:18;;;;;;;6.70;3.60;;;;;;;16.62;47.56;101492.25;5030329;28;20203;-72
2023/05/28 07:28:44;;;;;;;5.17;3.20;;;;;;;16.69;49.48;101495.13;5046676;28;20202;-73
2023/05/28 07:31:12;;;;;;;8.70;3.50;;;;;;;16.79;48.41;101491.94;5047933;28;20225;-72
2023/05/28 07:33:40;;;;;;;7.90;3.60;;;;;;;16.90;47.61;101489.53;5031600;28;20245;-72
2023/05/28 07:36:06;;;;;;;8.43;3.30;;;;;;;16.98;48.23;101493.91;5033405;28;20612;-72
2023/05/28 07:38:35;;;;;;;6.97;2.80;;;;;;;17.05;47.75;101492.19;5033050;28;20203;-72
2023/05/28 07:41:01;;;;;;;5.33;3.20;;;;;;;17.15;44.31;101498.88;5034765;28;20219;-72
2023/05/28 07:43:38;;;;;;;5.73;2.83;;;;;;;17.24;46.91;101496.81;5032986;28;20219;-72
2023/05/28 07:46:13;;;;;;;8.77;3.27;;;;;;;17.33;45.48;101497.41;5048618;28;20221;-72
2023/05/28 07:48:45;;;;;;;4.37;3.10;;;;;;;17.44;47.03;101495.75;5027902;28;20199;-72
2023/05/28 07:51:26;;;;;;;4.90;3.07;;;;;;;17.55;45.84;101494.09;5028129;28;20442;-72
2023/05/28 07:54:03;;;;;;;4.00;2.80;;;;;;;17.63;45.26;101491.22;5027728;28;20245;-72
2023/05/28 07:56:30;;;;;;;8.20;3.50;;;;;;;17.74;45.90;101486.84;5027701;28;20657;-72
2023/05/28 07:58:58;;;;;;;4.77;3.10;;;;;;;17.85;43.87;101487.84;5031844;28;20292;-72
2023/05/28 08:01:25;;;;;;;8.07;2.80;;;;;;;17.93;44.20;101486.09;5025336;28;20242;-72
2023/05/28 08:03:54;;;;;;;6.10;3.50;;;;;;;18.03;44.39;101483.63;5030204;28;20192;-72
2023/05/28 08:06:23;;;;;;;6.10;3.17;;;;;;;18.14;44.28;101491.84;5031714;28;20188;-72
2023/05/28 08:08:50;;;;;;;4.33;3.03;;;;;;;18.25;44.09;101488.25;5034610;28;20196;-72
2023/05/28 08:11:17;;;;;;;6.43;3.03;;;;;;;18.36;41.73;101483.88;5048127;28;20219;-72
2023/05/28 08:13:45;;;;;;;4.50;2.63;;;;;;;18.50;43.45;101481.47;5000980;28;20249;-72
2023/05/28 08:16:12;;;;;;;7.23;2.77;;;;;;;18.62;43.21;101478.59;5058673;28;20197;-72
2023/05/28 08:18:58;;;;;;;5.40;2.67;;;;;;;18.72;42.57;101482.56;5049823;28;20202;-72
2023/05/28 08:21:25;;;;;;;2.80;2.33;;;;;;;18.79;42.13;101466.63;5030084;28;20282;-72
2023/05/28 08:23:55;;;;;;;4.60;2.53;;;;;;;18.86;41.94;101467.53;5032471;28;20201;-72
2023/05/28 08:26:21;;;;;;;4.13;2.70;;;;;;;18.93;39.79;101469.53;5046164;28;20634;-72
2023/05/28 08:28:48;;;;;;;3.90;2.47;;;;;;;18.97;40.69;101467.66;5035892;28;20273;-72
2023/05/28 08:31:14;;;;;;;3.57;2.60;;;;;;;19.05;40.25;101464.72;5044436;28;20250;-72
2023/05/28 08:34:06;;;;;;;3.43;1.90;;;;;;;19.15;40.73;101466.78;5034208;28;20302;-73
2023/05/28 08:36:33;;;;;;;4.20;2.30;;;;;;;19.24;40.98;101464.66;5043292;28;20235;-72
2023/05/28 08:39:01;;;;;;;3.63;2.30;;;;;;;19.29;40.23;101467.03;5025038;28;20203;-72
2023/05/28 08:41:30;;;;;;;4.03;2.00;;;;;;;19.35;38.12;101462.16;5031516;28;20230;-72
2023/05/28 08:43:56;;;;;;;5.20;2.13;;;;;;;19.43;36.98;101461.88;5033243;28;20187;-72
2023/05/28 08:46:23;;;;;;;2.80;1.90;;;;;;;19.49;38.56;101454.28;5028523;28;20195;-72
2023/05/28 08:49:18;;;;;;;2.60;1.50;;;;;;;19.60;35.95;101457.84;5048065;28;20203;-72
2023/05/28 08:51:49;;;;;;;3.70;1.93;;;;;;;19.65;36.96;101455.63;5040794;28;20624;-72
2023/05/28 08:54:18;;;;;;;3.23;2.00;;;;;;;19.75;36.69;101463.03;5045240;28;20212;-72
2023/05/28 08:56:45;;;;;;;3.60;2.00;;;;;;;19.81;33.91;101455.44;5025870;28;20223;-72
2023/05/28 08:59:12;;;;;;;5.13;2.10;;;;;;;19.78;36.78;101462.31;5032007;28;20207;-72
2023/05/28 09:01:39;;;;;;;4.17;2.00;;;;;;;19.78;33.60;101454.28;5025833;28;20276;-72
2023/05/28 09:04:10;;;;;;;4.63;1.97;;;;;;;19.82;36.19;101456.97;5028517;28;21627;-72
2023/05/28 09:06:41;;;;;;;5.77;1.83;;;;;;;19.83;37.05;101450.47;5033151;28;20199;-71
2023/05/28 09:09:15;;;;;;;3.43;1.93;;;;;;;19.91;35.97;101454.75;5033867;28;20195;-72
2023/05/28 09:11:48;;;;;;;6.80;2.33;;;;;;;19.97;35.05;101464.81;5038265;28;20863;-72
2023/05/28 09:14:14;;;;;;;2.37;1.70;;;;;;;19.99;36.29;101459.06;5045608;28;20728;-72
2023/05/28 09:16:42;;;;;;;2.77;2.13;;;;;;;20.03;36.12;101451.84;5030493;28;20290;-71
2023/05/28 09:19:14;;;;;;;3.17;1.80;;;;;;;20.10;33.76;101451.94;5034362;28;20362;-72
2023/05/28 09:21:52;;;;;;;3.33;2.00;;;;;;;20.17;33.13;101449.34;5033674;28;20717;-72
2023/05/28 09:24:19;;;;;;;4.53;1.87;;;;;;;20.23;33.77;101455.91;5028057;28;20227;-72
2023/05/28 09:27:08;;;;;;;4.57;2.00;;;;;;;20.28;34.13;101445.59;5049046;28;20199;-72
2023/05/28 09:29:37;;;;;;;4.20;1.87;;;;;;;20.38;34.67;101446.88;5047895;28;20224;-71
2023/05/28 09:32:04;;;;;;;3.07;1.90;;;;;;;20.43;33.58;101436.53;5053747;28;20561;-72
2023/05/28 09:34:31;;;;;;;4.27;2.40;;;;;;;20.49;34.73;101440.44;5055944;28;20294;-72
2023/05/28 09:37:02;;;;;;;5.87;1.90;;;;;;;20.50;33.14;101427.78;5029311;28;20187;-72
2023/05/28 09:39:29;;;;;;;3.70;2.10;;;;;;;20.55;34.78;101425.53;5025209;28;20409;-72
2023/05/28 09:42:03;;;;;;;2.90;1.83;;;;;;;20.61;33.72;101429.41;5027646;28;20224;-73
2023/05/28 09:44:31;;;;;;;3.37;1.93;;;;;;;20.63;34.27;101437.06;5027107;28;20231;-72
2023/05/28 09:46:57;;;;;;;4.73;1.70;;;;;;;20.69;33.88;101436.38;5024759;28;20200;-72
2023/05/28 09:49:23;;;;;;;2.53;2.10;;;;;;;20.76;32.04;101433.75;5031987;28;20246;-72
2023/05/28 09:51:53;;;;;;;3.37;1.57;;;;;;;20.80;32.60;101437.22;5011346;28;20230;-72
2023/05/28 09:54:24;;;;;;;2.73;1.73;;;;;;;20.83;31.73;101430.31;5030666;28;20307;-72
2023/05/28 09:56:53;;;;;;;5.23;1.90;;;;;;;20.87;33.23;101417.69;5025926;28;20258;-72
2023/05/28 09:59:21;;;;;;;3.50;1.80;;;;;;;20.89;30.19;101410.84;5024399;28;20688;-72
2023/05/28 10:01:56;;;;;;;2.47;1.57;;;;;;;20.93;32.82;101410.88;5023972;28;20216;-72
2023/05/28 10:04:32;;;;;;;2.70;1.80;;;;;;;20.95;30.45;101412.03;5025969;28;20196;-71
2023/05/28 10:07:00;;;;;;;3.47;1.60;;;;;;;20.95;31.59;101411.28;5028789;28;20238;-72
2023/05/28 10:09:32;;;;;;;3.37;1.83;;;;;;;20.99;31.54;101406.66;5026732;28;20203;-72
2023/05/28 10:12:03;;;;;;;3.07;1.90;;;;;;;21.02;31.30;101408.63;5025078;28;20212;-72
2023/05/28 10:14:31;;;;;;;3.77;1.90;;;;;;;21.08;33.14;101409.81;5027394;28;20729;-72
2023/05/28 10:16:58;;;;;;;4.00;1.90;;;;;;;21.16;32.15;101416.75;5026249;28;20222;-70
2023/05/28 10:19:24;;;;;;;3.23;1.70;;;;;;;21.21;33.63;101411.78;5025719;28;20200;-72
2023/05/28 10:21:53;;;;;;;3.20;1.87;;;;;;;21.28;31.88;101419.13;5029707;28;20624;-72
2023/05/28 10:24:20;;;;;;;2.73;1.73;;;;;;;21.35;31.96;101419.13;5026910;28;20212;-72
2023/05/28 10:26:48;;;;;;;4.40;2.00;;;;;;;21.38;32.97;101419.16;5027753;28;20202;-73
2023/05/28 10:29:14;;;;;;;3.40;1.70;;;;;;;21.45;31.96;101405.75;5009233;28;20207;-72
2023/05/28 10:31:40;;;;;;;2.93;1.63;;;;;;;21.49;32.86;101411.16;5031151;28;20230;-72
2023/05/28 10:34:15;;;;;;;3.60;2.00;;;;;;;21.61;33.87;101416.16;5028746;28;20280;-72
2023/05/28 10:36:50;;;;;;;5.43;2.00;;;;;;;21.68;33.48;101408.16;5041945;28;20586;-70
2023/05/28 10:39:19;;;;;;;3.73;1.67;;;;;;;21.72;32.63;101401.66;5042794;28;20229;-72
2023/05/28 10:41:45;;;;;;;5.87;1.80;;;;;;;21.74;31.44;101396.66;5041439;28;20702;-72
2023/05/28 10:44:16;;;;;;;3.33;2.10;;;;;;;21.80;33.54;101391.69;5044281;28;20274;-72
2023/05/28 10:46:43;;;;;;;4.43;1.80;;;;;;;21.85;32.30;101392.09;5046496;28;20530;-72
2023/05/28 10:49:12;;;;;;;3.27;1.83;;;;;;;21.91;31.83;101385.19;5045927;28;20278;-72
2023/05/28 10:51:59;;;;;;;5.00;1.90;;;;;;;21.96;31.60;101390.19;5044222;28;20230;-72
2023/05/28 10:54:42;;;;;;;4.60;1.90;;;;;;;22.00;31.59;101387.50;5047745;28;20311;-72
2023/05/28 10:57:10;;;;;;;4.27;2.20;;;;;;;22.05;29.01;101401.31;5044527;28;20581;-72
2023/05/28 10:59:43;;;;;;;4.70;1.83;;;;;;;22.09;31.48;101394.03;5045299;28;20219;-73
2023/05/28 11:02:11;;;;;;;3.00;1.90;;;;;;;22.14;30.76;101390.19;5043378;28;20215;-70
2023/05/28 11:04:39;;;;;;;4.07;1.80;;;;;;;22.17;30.07;101384.81;5043949;28;20199;-70
2023/05/28 11:07:06;;;;;;;4.07;1.87;;;;;;;22.21;29.45;101382.13;5046156;28;20376;-71
2023/05/28 11:09:33;;;;;;;5.43;2.03;;;;;;;22.23;29.89;101377.13;5046776;28;20434;-73
2023/05/28 11:12:01;;;;;;;4.17;1.90;;;;;;;22.26;29.74;101379.06;5031619;28;20654;-72
2023/05/28 11:14:35;;;;;;;2.67;1.77;;;;;;;22.32;29.53;101389.06;5045000;28;20207;-70
2023/05/28 11:17:07;;;;;;;1.87;1.60;;;;;;;22.33;29.01;101371.75;5045086;28;20257;-72
2023/05/28 11:19:40;;;;;;;2.53;1.70;;;;;;;22.37;29.31;101369.03;5041132;28;20207;-72
2023/05/28 11:22:06;;;;;;;3.43;2.23;;;;;;;22.40;29.14;101370.97;5040590;28;20586;-72
2023/05/28 11:24:33;;;;;;;2.90;1.97;;;;;;;22.44;28.37;101369.06;5048733;28;20754;-71
2023/05/28 11:26:59;;;;;;;1.97;1.40;;;;;;;22.44;27.51;101367.16;5041313;28;20207;-70
2023/05/28 11:29:32;;;;;;;3.40;2.03;;;;;;;22.48;28.69;101367.91;5043081;28;20226;-72
2023/05/28 11:31:59;;;;;;;3.40;1.80;;;;;;;22.51;28.98;101364.44;5040228;28;20276;-72
2023/05/28 11:34:27;;;;;;;3.60;1.70;;;;;;;22.52;28.29;101365.22;5042221;28;20214;-71
2023/05/28 11:36:53;;;;;;;2.37;1.67;;;;;;;22.54;28.73;101371.75;5025814;28;20196;-72